Terminal Aerodrome Forecast
Issued by NWS

Home | Current Version | Previous Version | Graphics & Text | Print | Product List | Glossary On
Versions: 1 2 3 4 5 6 7 8 9 10 11 12 13 14 15 16 17 18 19 20 21 22 23 24 25
000
FTUS43 KLOT 222325
TAFORD
TAF
KORD 222325Z 2300/2406 14006KT P6SM FEW250
     FM230900 VRB03KT 6SM HZ SKC
     FM231400 21005KT P6SM FEW045
     FM231800 11009KT P6SM FEW050
     FM240200 VRB03KT P6SM SCT250=

USA.gov is the U.S. government's official web portal to all federal, state and local government web resources and services.